sensor_id;sensor_type;location;lat;lon;timestamp;temperature;humidity
24164;DHT22;12319;49.204;8.116;2023-02-22T00:00:39;8.30;74.90
24164;DHT22;12319;49.204;8.116;2023-02-22T00:03:13;8.30;75.00
24164;DHT22;12319;49.204;8.116;2023-02-22T00:05:45;8.30;75.20
24164;DHT22;12319;49.204;8.116;2023-02-22T00:08:15;8.20;75.30
24164;DHT22;12319;49.204;8.116;2023-02-22T00:10:42;8.30;75.40
24164;DHT22;12319;49.204;8.116;2023-02-22T00:13:09;8.20;75.40
24164;DHT22;12319;49.204;8.116;2023-02-22T00:15:36;8.10;75.40
24164;DHT22;12319;49.204;8.116;2023-02-22T00:18:03;8.10;75.70
24164;DHT22;12319;49.204;8.116;2023-02-22T00:20:29;8.00;76.00
24164;DHT22;12319;49.204;8.116;2023-02-22T00:22:55;8.00;76.10
24164;DHT22;12319;49.204;8.116;2023-02-22T00:25:22;8.00;76.10
24164;DHT22;12319;49.204;8.116;2023-02-22T00:27:49;8.00;76.10
24164;DHT22;12319;49.204;8.116;2023-02-22T00:30:25;8.00;76.40
24164;DHT22;12319;49.204;8.116;2023-02-22T00:32:51;8.00;76.50
24164;DHT22;12319;49.204;8.116;2023-02-22T00:35:20;8.00;76.60
24164;DHT22;12319;49.204;8.116;2023-02-22T00:37:47;8.00;76.70
24164;DHT22;12319;49.204;8.116;2023-02-22T00:40:17;7.90;76.20
24164;DHT22;12319;49.204;8.116;2023-02-22T00:42:43;7.90;76.80
24164;DHT22;12319;49.204;8.116;2023-02-22T00:45:10;7.90;76.80
24164;DHT22;12319;49.204;8.116;2023-02-22T00:47:36;7.80;76.80
24164;DHT22;12319;49.204;8.116;2023-02-22T00:50:02;7.80;76.90
24164;DHT22;12319;49.204;8.116;2023-02-22T00:52:28;7.80;77.00
24164;DHT22;12319;49.204;8.116;2023-02-22T00:54:54;7.80;77.10
24164;DHT22;12319;49.204;8.116;2023-02-22T00:57:22;7.80;77.20
24164;DHT22;12319;49.204;8.116;2023-02-22T00:59:48;7.70;77.30
24164;DHT22;12319;49.204;8.116;2023-02-22T01:02:14;7.70;77.40
24164;DHT22;12319;49.204;8.116;2023-02-22T01:04:39;7.70;77.50
24164;DHT22;12319;49.204;8.116;2023-02-22T01:07:05;7.70;77.60
24164;DHT22;12319;49.204;8.116;2023-02-22T01:09:31;7.60;77.70
24164;DHT22;12319;49.204;8.116;2023-02-22T01:11:57;7.60;77.80
24164;DHT22;12319;49.204;8.116;2023-02-22T01:14:24;7.60;77.90
24164;DHT22;12319;49.204;8.116;2023-02-22T01:16:55;7.60;78.10
24164;DHT22;12319;49.204;8.116;2023-02-22T01:19:21;7.60;78.20
24164;DHT22;12319;49.204;8.116;2023-02-22T01:21:48;7.60;78.20
24164;DHT22;12319;49.204;8.116;2023-02-22T01:24:15;7.60;78.30
24164;DHT22;12319;49.204;8.116;2023-02-22T01:26:42;7.50;78.30
24164;DHT22;12319;49.204;8.116;2023-02-22T01:29:11;7.50;78.50
24164;DHT22;12319;49.204;8.116;2023-02-22T01:31:40;7.50;78.60
24164;DHT22;12319;49.204;8.116;2023-02-22T01:34:11;7.50;78.60
24164;DHT22;12319;49.204;8.116;2023-02-22T01:36:37;7.40;78.50
24164;DHT22;12319;49.204;8.116;2023-02-22T01:39:04;7.40;78.70
24164;DHT22;12319;49.204;8.116;2023-02-22T01:41:30;7.30;78.70
24164;DHT22;12319;49.204;8.116;2023-02-22T01:43:56;7.30;78.80
24164;DHT22;12319;49.204;8.116;2023-02-22T01:46:26;7.30;79.00
24164;DHT22;12319;49.204;8.116;2023-02-22T01:48:58;7.30;79.20
24164;DHT22;12319;49.204;8.116;2023-02-22T01:51:28;7.30;79.20
24164;DHT22;12319;49.204;8.116;2023-02-22T01:54:00;7.20;79.30
24164;DHT22;12319;49.204;8.116;2023-02-22T01:56:28;7.20;79.40
24164;DHT22;12319;49.204;8.116;2023-02-22T01:59:03;7.20;79.60
24164;DHT22;12319;49.204;8.116;2023-02-22T02:01:31;7.10;79.70
24164;DHT22;12319;49.204;8.116;2023-02-22T02:03:59;7.10;79.70
24164;DHT22;12319;49.204;8.116;2023-02-22T02:06:27;7.10;79.70
24164;DHT22;12319;49.204;8.116;2023-02-22T02:09:15;7.10;79.90
24164;DHT22;12319;49.204;8.116;2023-02-22T02:11:43;7.10;80.10
24164;DHT22;12319;49.204;8.116;2023-02-22T02:14:10;7.10;80.10
24164;DHT22;12319;49.204;8.116;2023-02-22T02:16:40;7.10;80.30
24164;DHT22;12319;49.204;8.116;2023-02-22T02:24:45;7.10;80.50
24164;DHT22;12319;49.204;8.116;2023-02-22T02:27:24;7.10;80.70
24164;DHT22;12319;49.204;8.116;2023-02-22T02:32:27;7.10;80.80
24164;DHT22;12319;49.204;8.116;2023-02-22T02:35:06;7.00;81.00
24164;DHT22;12319;49.204;8.116;2023-02-22T02:45:54;7.00;81.50
24164;DHT22;12319;49.204;8.116;2023-02-22T02:48:25;7.00;81.50
24164;DHT22;12319;49.204;8.116;2023-02-22T02:50:55;7.00;81.60
24164;DHT22;12319;49.204;8.116;2023-02-22T02:53:29;7.00;81.70
24164;DHT22;12319;49.204;8.116;2023-02-22T02:55:58;7.00;81.80
24164;DHT22;12319;49.204;8.116;2023-02-22T02:58:24;7.00;82.40
24164;DHT22;12319;49.204;8.116;2023-02-22T03:00:56;7.00;81.90
24164;DHT22;12319;49.204;8.116;2023-02-22T03:03:50;6.90;81.80
24164;DHT22;12319;49.204;8.116;2023-02-22T03:09:30;6.90;82.20
24164;DHT22;12319;49.204;8.116;2023-02-22T03:12:13;6.90;82.30
24164;DHT22;12319;49.204;8.116;2023-02-22T03:15:18;6.90;82.50
24164;DHT22;12319;49.204;8.116;2023-02-22T03:18:02;6.90;82.70
24164;DHT22;12319;49.204;8.116;2023-02-22T03:20:36;6.90;82.70
24164;DHT22;12319;49.204;8.116;2023-02-22T03:23:15;6.80;82.70
24164;DHT22;12319;49.204;8.116;2023-02-22T03:25:49;6.80;82.90
24164;DHT22;12319;49.204;8.116;2023-02-22T03:28:17;6.80;82.80
24164;DHT22;12319;49.204;8.116;2023-02-22T03:30:44;6.80;83.00
24164;DHT22;12319;49.204;8.116;2023-02-22T03:33:18;6.80;83.10
24164;DHT22;12319;49.204;8.116;2023-02-22T03:35:53;6.70;83.10
24164;DHT22;12319;49.204;8.116;2023-02-22T03:38:23;6.70;83.30
24164;DHT22;12319;49.204;8.116;2023-02-22T03:40:51;6.70;83.40
24164;DHT22;12319;49.204;8.116;2023-02-22T03:43:23;6.70;83.40
24164;DHT22;12319;49.204;8.116;2023-02-22T03:45:50;6.70;83.70
24164;DHT22;12319;49.204;8.116;2023-02-22T03:48:21;6.70;83.70
24164;DHT22;12319;49.204;8.116;2023-02-22T03:50:49;6.60;83.60
24164;DHT22;12319;49.204;8.116;2023-02-22T03:53:16;6.60;83.60
24164;DHT22;12319;49.204;8.116;2023-02-22T03:55:43;6.60;83.60
24164;DHT22;12319;49.204;8.116;2023-02-22T03:58:10;6.60;83.60
24164;DHT22;12319;49.204;8.116;2023-02-22T04:00:37;6.50;83.60
24164;DHT22;12319;49.204;8.116;2023-02-22T04:03:03;6.50;84.00
24164;DHT22;12319;49.204;8.116;2023-02-22T04:05:29;6.50;84.00
24164;DHT22;12319;49.204;8.116;2023-02-22T04:07:55;6.40;84.10
24164;DHT22;12319;49.204;8.116;2023-02-22T04:10:22;6.50;84.30
24164;DHT22;12319;49.204;8.116;2023-02-22T04:12:48;6.40;84.20
24164;DHT22;12319;49.204;8.116;2023-02-22T04:15:17;6.40;84.30
24164;DHT22;12319;49.204;8.116;2023-02-22T04:17:44;6.40;84.40
24164;DHT22;12319;49.204;8.116;2023-02-22T04:20:10;6.30;84.40
24164;DHT22;12319;49.204;8.116;2023-02-22T04:22:38;6.30;84.50
24164;DHT22;12319;49.204;8.116;2023-02-22T04:25:05;6.30;84.70
24164;DHT22;12319;49.204;8.116;2023-02-22T04:27:31;6.20;84.80
24164;DHT22;12319;49.204;8.116;2023-02-22T04:29:56;6.20;84.90
24164;DHT22;12319;49.204;8.116;2023-02-22T04:32:22;6.20;85.10
24164;DHT22;12319;49.204;8.116;2023-02-22T04:34:47;6.20;85.30
24164;DHT22;12319;49.204;8.116;2023-02-22T04:37:13;6.20;85.40
24164;DHT22;12319;49.204;8.116;2023-02-22T04:39:38;6.20;85.40
24164;DHT22;12319;49.204;8.116;2023-02-22T04:42:04;6.20;85.30
24164;DHT22;12319;49.204;8.116;2023-02-22T04:44:30;6.20;85.40
24164;DHT22;12319;49.204;8.116;2023-02-22T04:46:55;6.20;85.50
24164;DHT22;12319;49.204;8.116;2023-02-22T04:49:22;6.20;85.60
24164;DHT22;12319;49.204;8.116;2023-02-22T04:51:47;6.10;85.60
24164;DHT22;12319;49.204;8.116;2023-02-22T04:54:13;6.20;85.80
24164;DHT22;12319;49.204;8.116;2023-02-22T04:56:40;6.10;85.80
24164;DHT22;12319;49.204;8.116;2023-02-22T04:59:06;6.10;85.80
24164;DHT22;12319;49.204;8.116;2023-02-22T05:01:32;6.10;85.90
24164;DHT22;12319;49.204;8.116;2023-02-22T05:04:00;6.10;86.00
24164;DHT22;12319;49.204;8.116;2023-02-22T05:06:25;6.10;86.00
24164;DHT22;12319;49.204;8.116;2023-02-22T05:08:51;6.10;86.10
24164;DHT22;12319;49.204;8.116;2023-02-22T05:11:17;6.10;86.80
24164;DHT22;12319;49.204;8.116;2023-02-22T05:13:43;6.10;86.30
24164;DHT22;12319;49.204;8.116;2023-02-22T05:16:08;6.10;86.40
24164;DHT22;12319;49.204;8.116;2023-02-22T05:18:34;6.00;86.40
24164;DHT22;12319;49.204;8.116;2023-02-22T05:20:59;6.10;86.60
24164;DHT22;12319;49.204;8.116;2023-02-22T05:23:25;6.00;86.50
24164;DHT22;12319;49.204;8.116;2023-02-22T05:25:50;6.10;86.60
24164;DHT22;12319;49.204;8.116;2023-02-22T05:28:16;6.00;86.50
24164;DHT22;12319;49.204;8.116;2023-02-22T05:30:42;6.00;86.60
24164;DHT22;12319;49.204;8.116;2023-02-22T05:33:08;6.00;86.60
24164;DHT22;12319;49.204;8.116;2023-02-22T05:35:34;6.00;86.70
24164;DHT22;12319;49.204;8.116;2023-02-22T05:38:01;6.00;86.80
24164;DHT22;12319;49.204;8.116;2023-02-22T05:40:28;6.00;86.80
24164;DHT22;12319;49.204;8.116;2023-02-22T05:42:55;6.00;87.00
24164;DHT22;12319;49.204;8.116;2023-02-22T05:45:23;6.00;87.00
24164;DHT22;12319;49.204;8.116;2023-02-22T05:47:50;6.00;87.30
24164;DHT22;12319;49.204;8.116;2023-02-22T05:50:16;6.00;87.30
24164;DHT22;12319;49.204;8.116;2023-02-22T05:52:43;6.00;87.30
24164;DHT22;12319;49.204;8.116;2023-02-22T05:55:11;6.00;87.40
24164;DHT22;12319;49.204;8.116;2023-02-22T05:57:37;6.00;87.60
24164;DHT22;12319;49.204;8.116;2023-02-22T06:00:04;6.00;87.80
24164;DHT22;12319;49.204;8.116;2023-02-22T06:02:31;6.00;87.80
24164;DHT22;12319;49.204;8.116;2023-02-22T06:04:57;5.90;88.20
24164;DHT22;12319;49.204;8.116;2023-02-22T06:07:22;5.90;87.90
24164;DHT22;12319;49.204;8.116;2023-02-22T06:09:48;5.90;88.00
24164;DHT22;12319;49.204;8.116;2023-02-22T06:12:13;5.90;88.00
24164;DHT22;12319;49.204;8.116;2023-02-22T06:14:40;5.90;88.10
24164;DHT22;12319;49.204;8.116;2023-02-22T06:17:10;5.90;88.10
24164;DHT22;12319;49.204;8.116;2023-02-22T06:19:36;6.00;88.40
24164;DHT22;12319;49.204;8.116;2023-02-22T06:22:01;5.90;88.30
24164;DHT22;12319;49.204;8.116;2023-02-22T06:24:27;6.00;88.40
24164;DHT22;12319;49.204;8.116;2023-02-22T06:26:58;5.90;88.30
24164;DHT22;12319;49.204;8.116;2023-02-22T06:29:24;5.90;88.50
24164;DHT22;12319;49.204;8.116;2023-02-22T06:31:50;5.90;88.60
24164;DHT22;12319;49.204;8.116;2023-02-22T06:34:17;5.90;88.90
24164;DHT22;12319;49.204;8.116;2023-02-22T06:36:43;5.90;89.20
24164;DHT22;12319;49.204;8.116;2023-02-22T06:39:09;5.80;89.20
24164;DHT22;12319;49.204;8.116;2023-02-22T06:41:40;5.80;89.20
24164;DHT22;12319;49.204;8.116;2023-02-22T06:44:06;5.80;89.50
24164;DHT22;12319;49.204;8.116;2023-02-22T06:46:31;5.80;89.60
24164;DHT22;12319;49.204;8.116;2023-02-22T06:48:57;5.80;89.60
24164;DHT22;12319;49.204;8.116;2023-02-22T06:51:25;5.80;89.60
24164;DHT22;12319;49.204;8.116;2023-02-22T06:53:51;5.80;89.70
24164;DHT22;12319;49.204;8.116;2023-02-22T06:56:16;5.90;90.00
24164;DHT22;12319;49.204;8.116;2023-02-22T06:58:43;6.00;89.90
24164;DHT22;12319;49.204;8.116;2023-02-22T07:01:08;6.00;89.90
24164;DHT22;12319;49.204;8.116;2023-02-22T07:03:34;6.10;89.90
24164;DHT22;12319;49.204;8.116;2023-02-22T07:06:01;6.10;89.90
24164;DHT22;12319;49.204;8.116;2023-02-22T07:08:27;6.20;89.90
24164;DHT22;12319;49.204;8.116;2023-02-22T07:10:53;6.30;89.70
24164;DHT22;12319;49.204;8.116;2023-02-22T07:13:19;6.30;89.60
24164;DHT22;12319;49.204;8.116;2023-02-22T07:15:45;6.40;89.70
24164;DHT22;12319;49.204;8.116;2023-02-22T07:18:11;6.50;89.80
24164;DHT22;12319;49.204;8.116;2023-02-22T07:20:37;6.50;89.60
24164;DHT22;12319;49.204;8.116;2023-02-22T07:23:04;6.60;89.50
24164;DHT22;12319;49.204;8.116;2023-02-22T07:25:29;6.60;89.40
24164;DHT22;12319;49.204;8.116;2023-02-22T07:27:55;6.70;89.40
24164;DHT22;12319;49.204;8.116;2023-02-22T07:30:27;6.80;89.40
24164;DHT22;12319;49.204;8.116;2023-02-22T07:32:56;6.90;89.30
24164;DHT22;12319;49.204;8.116;2023-02-22T07:35:30;6.90;88.90
24164;DHT22;12319;49.204;8.116;2023-02-22T07:37:56;7.00;88.90
24164;DHT22;12319;49.204;8.116;2023-02-22T07:40:24;7.10;88.90
24164;DHT22;12319;49.204;8.116;2023-02-22T07:42:54;7.20;89.00
24164;DHT22;12319;49.204;8.116;2023-02-22T07:45:21;7.20;88.90
24164;DHT22;12319;49.204;8.116;2023-02-22T07:47:47;7.40;88.80
24164;DHT22;12319;49.204;8.116;2023-02-22T07:50:17;7.50;88.80
24164;DHT22;12319;49.204;8.116;2023-02-22T07:52:45;7.60;88.70
24164;DHT22;12319;49.204;8.116;2023-02-22T07:55:15;7.70;88.60
24164;DHT22;12319;49.204;8.116;2023-02-22T07:57:44;7.80;88.50
24164;DHT22;12319;49.204;8.116;2023-02-22T08:00:11;7.90;88.10
24164;DHT22;12319;49.204;8.116;2023-02-22T08:02:41;8.00;88.00
24164;DHT22;12319;49.204;8.116;2023-02-22T08:05:09;8.10;87.80
24164;DHT22;12319;49.204;8.116;2023-02-22T08:07:36;8.30;87.70
24164;DHT22;12319;49.204;8.116;2023-02-22T08:10:03;8.50;87.70
24164;DHT22;12319;49.204;8.116;2023-02-22T08:12:32;8.70;87.50
24164;DHT22;12319;49.204;8.116;2023-02-22T08:14:57;8.80;86.80
24164;DHT22;12319;49.204;8.116;2023-02-22T08:17:23;9.00;86.70
24164;DHT22;12319;49.204;8.116;2023-02-22T08:19:48;9.20;86.30
24164;DHT22;12319;49.204;8.116;2023-02-22T08:22:14;9.50;86.00
24164;DHT22;12319;49.204;8.116;2023-02-22T08:24:39;9.70;86.10
24164;DHT22;12319;49.204;8.116;2023-02-22T08:27:05;10.00;84.80
24164;DHT22;12319;49.204;8.116;2023-02-22T08:29:31;10.60;85.50
24164;DHT22;12319;49.204;8.116;2023-02-22T08:31:59;11.70;86.00
24164;DHT22;12319;49.204;8.116;2023-02-22T08:34:24;12.80;84.70
24164;DHT22;12319;49.204;8.116;2023-02-22T08:36:50;13.70;81.50
24164;DHT22;12319;49.204;8.116;2023-02-22T08:39:16;14.40;80.00
24164;DHT22;12319;49.204;8.116;2023-02-22T08:41:41;15.10;78.60
24164;DHT22;12319;49.204;8.116;2023-02-22T08:44:07;15.60;76.70
24164;DHT22;12319;49.204;8.116;2023-02-22T08:46:32;15.90;75.10
24164;DHT22;12319;49.204;8.116;2023-02-22T08:48:58;16.20;72.30
24164;DHT22;12319;49.204;8.116;2023-02-22T08:51:23;16.30;71.90
24164;DHT22;12319;49.204;8.116;2023-02-22T08:53:49;16.50;71.70
24164;DHT22;12319;49.204;8.116;2023-02-22T08:56:15;16.50;71.20
24164;DHT22;12319;49.204;8.116;2023-02-22T08:58:41;16.60;70.80
24164;DHT22;12319;49.204;8.116;2023-02-22T09:01:06;16.70;69.20
24164;DHT22;12319;49.204;8.116;2023-02-22T09:03:32;16.70;68.80
24164;DHT22;12319;49.204;8.116;2023-02-22T09:05:57;16.70;68.40
24164;DHT22;12319;49.204;8.116;2023-02-22T09:08:23;16.80;68.60
24164;DHT22;12319;49.204;8.116;2023-02-22T09:10:49;17.00;68.80
24164;DHT22;12319;49.204;8.116;2023-02-22T09:13:15;17.20;67.90
24164;DHT22;12319;49.204;8.116;2023-02-22T09:15:41;17.60;67.00
24164;DHT22;12319;49.204;8.116;2023-02-22T09:18:08;17.80;66.70
24164;DHT22;12319;49.204;8.116;2023-02-22T09:20:34;17.70;66.90
24164;DHT22;12319;49.204;8.116;2023-02-22T09:23:01;17.70;65.80
24164;DHT22;12319;49.204;8.116;2023-02-22T09:25:28;17.70;66.00
24164;DHT22;12319;49.204;8.116;2023-02-22T09:27:54;17.70;65.60
24164;DHT22;12319;49.204;8.116;2023-02-22T09:30:29;17.70;65.60
24164;DHT22;12319;49.204;8.116;2023-02-22T09:33:00;17.90;64.00
24164;DHT22;12319;49.204;8.116;2023-02-22T09:35:26;18.00;65.00
24164;DHT22;12319;49.204;8.116;2023-02-22T09:37:56;18.20;64.40
24164;DHT22;12319;49.204;8.116;2023-02-22T09:40:23;18.40;61.70
24164;DHT22;12319;49.204;8.116;2023-02-22T09:43:02;18.20;62.70
24164;DHT22;12319;49.204;8.116;2023-02-22T09:45:56;18.00;61.40
24164;DHT22;12319;49.204;8.116;2023-02-22T09:48:26;17.70;62.30
24164;DHT22;12319;49.204;8.116;2023-02-22T09:50:58;17.40;61.80
24164;DHT22;12319;49.204;8.116;2023-02-22T09:53:39;17.10;62.00
24164;DHT22;12319;49.204;8.116;2023-02-22T09:56:09;16.90;62.10
24164;DHT22;12319;49.204;8.116;2023-02-22T09:58:59;16.70;62.80
24164;DHT22;12319;49.204;8.116;2023-02-22T10:01:31;16.50;63.20
24164;DHT22;12319;49.204;8.116;2023-02-22T10:04:33;16.40;63.30
24164;DHT22;12319;49.204;8.116;2023-02-22T10:07:05;16.50;63.40
24164;DHT22;12319;49.204;8.116;2023-02-22T10:09:37;16.60;63.00
24164;DHT22;12319;49.204;8.116;2023-02-22T10:12:17;16.70;62.80
24164;DHT22;12319;49.204;8.116;2023-02-22T10:15:16;16.60;62.30
24164;DHT22;12319;49.204;8.116;2023-02-22T10:26:00;15.60;63.70
24164;DHT22;12319;49.204;8.116;2023-02-22T10:28:36;15.40;64.10
24164;DHT22;12319;49.204;8.116;2023-02-22T10:31:07;15.30;64.70
24164;DHT22;12319;49.204;8.116;2023-02-22T10:33:38;15.20;64.90
24164;DHT22;12319;49.204;8.116;2023-02-22T10:36:15;15.10;64.80
24164;DHT22;12319;49.204;8.116;2023-02-22T10:38:51;15.20;65.30
24164;DHT22;12319;49.204;8.116;2023-02-22T10:41:25;15.10;65.10
24164;DHT22;12319;49.204;8.116;2023-02-22T10:43:51;15.10;65.70
24164;DHT22;12319;49.204;8.116;2023-02-22T10:46:20;15.10;65.20
24164;DHT22;12319;49.204;8.116;2023-02-22T10:48:49;15.10;65.00
24164;DHT22;12319;49.204;8.116;2023-02-22T10:51:15;15.10;65.20
24164;DHT22;12319;49.204;8.116;2023-02-22T10:53:41;15.10;65.60
24164;DHT22;12319;49.204;8.116;2023-02-22T10:58:48;15.10;65.60
24164;DHT22;12319;49.204;8.116;2023-02-22T11:04:10;15.20;65.50
24164;DHT22;12319;49.204;8.116;2023-02-22T11:06:38;15.20;65.80
24164;DHT22;12319;49.204;8.116;2023-02-22T11:09:18;15.30;65.30
24164;DHT22;12319;49.204;8.116;2023-02-22T11:11:47;15.20;64.60
24164;DHT22;12319;49.204;8.116;2023-02-22T11:14:27;15.50;65.30
24164;DHT22;12319;49.204;8.116;2023-02-22T11:16:55;15.20;65.40
24164;DHT22;12319;49.204;8.116;2023-02-22T11:19:27;15.10;65.50
24164;DHT22;12319;49.204;8.116;2023-02-22T11:22:19;15.10;65.40
24164;DHT22;12319;49.204;8.116;2023-02-22T11:24:48;15.10;65.60
24164;DHT22;12319;49.204;8.116;2023-02-22T11:27:27;15.20;65.80
24164;DHT22;12319;49.204;8.116;2023-02-22T11:30:06;15.20;65.80
24164;DHT22;12319;49.204;8.116;2023-02-22T11:32:33;15.20;66.20
24164;DHT22;12319;49.204;8.116;2023-02-22T11:37:49;15.30;66.60
24164;DHT22;12319;49.204;8.116;2023-02-22T11:40:21;15.30;66.50
24164;DHT22;12319;49.204;8.116;2023-02-22T11:43:08;15.40;66.40
24164;DHT22;12319;49.204;8.116;2023-02-22T11:45:37;15.50;66.80
24164;DHT22;12319;49.204;8.116;2023-02-22T11:48:05;15.60;66.70
24164;DHT22;12319;49.204;8.116;2023-02-22T11:50:57;15.60;66.90
24164;DHT22;12319;49.204;8.116;2023-02-22T11:56:47;15.80;67.10
24164;DHT22;12319;49.204;8.116;2023-02-22T12:01:57;16.00;66.80
24164;DHT22;12319;49.204;8.116;2023-02-22T12:16:07;16.40;66.20
24164;DHT22;12319;49.204;8.116;2023-02-22T12:21:19;16.60;65.40
24164;DHT22;12319;49.204;8.116;2023-02-22T12:24:08;16.70;64.20
24164;DHT22;12319;49.204;8.116;2023-02-22T12:26:49;16.70;64.80
24164;DHT22;12319;49.204;8.116;2023-02-22T12:29:42;16.70;62.00
24164;DHT22;12319;49.204;8.116;2023-02-22T12:34:45;16.70;62.70
24164;DHT22;12319;49.204;8.116;2023-02-22T12:48:42;16.50;61.40
24164;DHT22;12319;49.204;8.116;2023-02-22T12:54:04;16.50;59.80
24164;DHT22;12319;49.204;8.116;2023-02-22T12:56:40;16.50;59.60
24164;DHT22;12319;49.204;8.116;2023-02-22T12:59:32;16.50;58.80
24164;DHT22;12319;49.204;8.116;2023-02-22T13:04:42;16.50;56.70
24164;DHT22;12319;49.204;8.116;2023-02-22T13:10:06;16.60;57.80
24164;DHT22;12319;49.204;8.116;2023-02-22T13:13:23;16.60;57.70
24164;DHT22;12319;49.204;8.116;2023-02-22T13:16:10;16.50;57.30
24164;DHT22;12319;49.204;8.116;2023-02-22T13:21:40;16.40;58.30
24164;DHT22;12319;49.204;8.116;2023-02-22T13:24:21;16.30;58.10
24164;DHT22;12319;49.204;8.116;2023-02-22T13:27:00;16.20;58.00
24164;DHT22;12319;49.204;8.116;2023-02-22T13:29:41;16.20;59.00
24164;DHT22;12319;49.204;8.116;2023-02-22T13:38:00;16.50;58.50
24164;DHT22;12319;49.204;8.116;2023-02-22T13:40:46;16.50;58.90
24164;DHT22;12319;49.204;8.116;2023-02-22T13:57:00;16.50;59.10
24164;DHT22;12319;49.204;8.116;2023-02-22T13:59:35;16.40;58.00
24164;DHT22;12319;49.204;8.116;2023-02-22T14:02:04;16.30;59.00
24164;DHT22;12319;49.204;8.116;2023-02-22T14:17:39;15.90;59.90
24164;DHT22;12319;49.204;8.116;2023-02-22T14:22:41;15.90;60.00
24164;DHT22;12319;49.204;8.116;2023-02-22T14:27:58;15.80;60.60
24164;DHT22;12319;49.204;8.116;2023-02-22T14:30:29;15.70;60.70
24164;DHT22;12319;49.204;8.116;2023-02-22T14:32:55;15.80;60.80
24164;DHT22;12319;49.204;8.116;2023-02-22T14:35:21;15.70;61.10
24164;DHT22;12319;49.204;8.116;2023-02-22T14:37:52;15.70;60.70
24164;DHT22;12319;49.204;8.116;2023-02-22T14:40:34;15.70;61.10
24164;DHT22;12319;49.204;8.116;2023-02-22T14:43:12;15.80;61.30
24164;DHT22;12319;49.204;8.116;2023-02-22T14:45:44;15.80;61.20
24164;DHT22;12319;49.204;8.116;2023-02-22T14:51:00;15.70;61.20
24164;DHT22;12319;49.204;8.116;2023-02-22T14:56:15;15.80;61.60
24164;DHT22;12319;49.204;8.116;2023-02-22T14:58:43;15.70;61.50
24164;DHT22;12319;49.204;8.116;2023-02-22T15:03:51;15.70;61.60
24164;DHT22;12319;49.204;8.116;2023-02-22T15:06:24;15.70;61.70
24164;DHT22;12319;49.204;8.116;2023-02-22T15:09:18;15.70;62.00
24164;DHT22;12319;49.204;8.116;2023-02-22T15:14:22;15.50;62.30
24164;DHT22;12319;49.204;8.116;2023-02-22T15:16:52;15.50;62.60
24164;DHT22;12319;49.204;8.116;2023-02-22T15:19:29;15.50;62.80
24164;DHT22;12319;49.204;8.116;2023-02-22T15:21:58;15.40;63.10
24164;DHT22;12319;49.204;8.116;2023-02-22T15:24:29;15.40;63.40
24164;DHT22;12319;49.204;8.116;2023-02-22T15:26:55;15.40;63.60
24164;DHT22;12319;49.204;8.116;2023-02-22T15:29:47;15.30;63.60
24164;DHT22;12319;49.204;8.116;2023-02-22T15:34:53;15.30;64.40
24164;DHT22;12319;49.204;8.116;2023-02-22T15:37:22;15.20;64.60
24164;DHT22;12319;49.204;8.116;2023-02-22T15:39:50;15.20;64.90
24164;DHT22;12319;49.204;8.116;2023-02-22T15:42:24;15.30;65.30
24164;DHT22;12319;49.204;8.116;2023-02-22T15:44:52;15.20;65.60
24164;DHT22;12319;49.204;8.116;2023-02-22T15:47:24;15.10;65.90
24164;DHT22;12319;49.204;8.116;2023-02-22T15:57:52;15.00;67.60
24164;DHT22;12319;49.204;8.116;2023-02-22T16:00:27;15.00;67.60
24164;DHT22;12319;49.204;8.116;2023-02-22T16:03:01;14.90;67.80
24164;DHT22;12319;49.204;8.116;2023-02-22T16:05:38;14.90;68.30
24164;DHT22;12319;49.204;8.116;2023-02-22T16:08:18;14.80;68.40
24164;DHT22;12319;49.204;8.116;2023-02-22T16:11:06;14.60;68.30
24164;DHT22;12319;49.204;8.116;2023-02-22T16:13:38;14.70;69.20
24164;DHT22;12319;49.204;8.116;2023-02-22T16:16:27;14.70;69.20
24164;DHT22;12319;49.204;8.116;2023-02-22T16:19:31;14.60;69.80
24164;DHT22;12319;49.204;8.116;2023-02-22T16:22:02;14.50;69.80
24164;DHT22;12319;49.204;8.116;2023-02-22T16:24:32;14.50;70.20
24164;DHT22;12319;49.204;8.116;2023-02-22T16:29:43;14.40;71.10
24164;DHT22;12319;49.204;8.116;2023-02-22T16:32:09;14.30;71.50
24164;DHT22;12319;49.204;8.116;2023-02-22T16:34:36;14.30;71.90
24164;DHT22;12319;49.204;8.116;2023-02-22T16:37:01;14.20;71.60
24164;DHT22;12319;49.204;8.116;2023-02-22T16:39:30;14.10;71.60
24164;DHT22;12319;49.204;8.116;2023-02-22T16:42:01;14.00;71.60
24164;DHT22;12319;49.204;8.116;2023-02-22T16:44:27;14.00;71.60
24164;DHT22;12319;49.204;8.116;2023-02-22T16:46:56;14.00;72.10
24164;DHT22;12319;49.204;8.116;2023-02-22T16:49:22;13.90;73.10
24164;DHT22;12319;49.204;8.116;2023-02-22T16:51:55;13.90;72.40
24164;DHT22;12319;49.204;8.116;2023-02-22T16:54:26;13.90;72.70
24164;DHT22;12319;49.204;8.116;2023-02-22T16:56:54;13.80;72.70
24164;DHT22;12319;49.204;8.116;2023-02-22T16:59:21;13.80;72.80
24164;DHT22;12319;49.204;8.116;2023-02-22T17:01:47;13.70;72.90
24164;DHT22;12319;49.204;8.116;2023-02-22T17:04:20;13.70;73.00
24164;DHT22;12319;49.204;8.116;2023-02-22T17:06:46;13.70;73.20
24164;DHT22;12319;49.204;8.116;2023-02-22T17:09:12;13.60;73.40
24164;DHT22;12319;49.204;8.116;2023-02-22T17:11:39;13.60;73.50
24164;DHT22;12319;49.204;8.116;2023-02-22T17:14:05;13.50;73.50
24164;DHT22;12319;49.204;8.116;2023-02-22T17:16:31;13.50;73.70
24164;DHT22;12319;49.204;8.116;2023-02-22T17:18:57;13.50;74.20
24164;DHT22;12319;49.204;8.116;2023-02-22T17:21:22;13.50;74.40
24164;DHT22;12319;49.204;8.116;2023-02-22T17:23:48;13.50;74.40
24164;DHT22;12319;49.204;8.116;2023-02-22T17:26:15;13.40;74.50
24164;DHT22;12319;49.204;8.116;2023-02-22T17:28:41;13.40;74.50
24164;DHT22;12319;49.204;8.116;2023-02-22T17:31:21;13.40;74.70
24164;DHT22;12319;49.204;8.116;2023-02-22T17:33:48;13.40;74.70
24164;DHT22;12319;49.204;8.116;2023-02-22T17:36:15;13.40;75.00
24164;DHT22;12319;49.204;8.116;2023-02-22T17:38:41;13.30;75.20
24164;DHT22;12319;49.204;8.116;2023-02-22T17:41:07;13.30;75.30
24164;DHT22;12319;49.204;8.116;2023-02-22T17:43:33;13.30;75.40
24164;DHT22;12319;49.204;8.116;2023-02-22T17:45:59;13.40;76.20
24164;DHT22;12319;49.204;8.116;2023-02-22T17:48:25;13.30;75.50
24164;DHT22;12319;49.204;8.116;2023-02-22T17:50:51;13.30;75.70
24164;DHT22;12319;49.204;8.116;2023-02-22T17:53:18;13.30;76.20
24164;DHT22;12319;49.204;8.116;2023-02-22T17:55:47;13.30;76.20
24164;DHT22;12319;49.204;8.116;2023-02-22T17:58:13;13.30;76.30
24164;DHT22;12319;49.204;8.116;2023-02-22T18:00:40;13.30;76.20
24164;DHT22;12319;49.204;8.116;2023-02-22T18:03:08;13.30;76.40
24164;DHT22;12319;49.204;8.116;2023-02-22T18:05:42;13.50;76.80
24164;DHT22;12319;49.204;8.116;2023-02-22T18:08:08;13.30;76.90
24164;DHT22;12319;49.204;8.116;2023-02-22T18:10:34;13.30;77.60
24164;DHT22;12319;49.204;8.116;2023-02-22T18:13:00;13.30;77.40
24164;DHT22;12319;49.204;8.116;2023-02-22T18:15:27;13.30;77.40
24164;DHT22;12319;49.204;8.116;2023-02-22T18:17:54;13.30;77.70